sensor_id;sensor_type;location;lat;lon;timestamp;pressure;altitude;pressure_sealevel;temperature;humidity
19600;BME280;9947;57.722;12.012;2023-04-01T00:01:53;100167.63;;;-1.87;100.00
19600;BME280;9947;57.722;12.012;2023-04-01T00:04:20;100172.28;;;-1.93;100.00
19600;BME280;9947;57.722;12.012;2023-04-01T00:06:47;100174.25;;;-1.98;100.00
19600;BME280;9947;57.722;12.012;2023-04-01T00:09:15;100176.03;;;-1.99;100.00
19600;BME280;9947;57.722;12.012;2023-04-01T00:11:42;100172.50;;;-1.99;100.00
19600;BME280;9947;57.722;12.012;2023-04-01T00:14:10;100184.13;;;-2.03;100.00
19600;BME280;9947;57.722;12.012;2023-04-01T00:16:37;100185.09;;;-2.06;100.00
19600;BME280;9947;57.722;12.012;2023-04-01T00:19:04;100173.72;;;-2.09;100.00
19600;BME280;9947;57.722;12.012;2023-04-01T00:21:30;100187.13;;;-2.14;100.00
19600;BME280;9947;57.722;12.012;2023-04-01T00:23:58;100182.84;;;-2.18;100.00
19600;BME280;9947;57.722;12.012;2023-04-01T00:26:26;100190.91;;;-2.21;100.00
19600;BME280;9947;57.722;12.012;2023-04-01T00:28:53;100189.06;;;-2.19;100.00
19600;BME280;9947;57.722;12.012;2023-04-01T00:31:20;100190.19;;;-2.26;100.00
19600;BME280;9947;57.722;12.012;2023-04-01T00:33:48;100202.78;;;-2.33;100.00
19600;BME280;9947;57.722;12.012;2023-04-01T00:36:22;100195.78;;;-2.35;100.00
19600;BME280;9947;57.722;12.012;2023-04-01T00:38:49;100201.22;;;-2.40;100.00
19600;BME280;9947;57.722;12.012;2023-04-01T00:41:19;100221.59;;;-2.42;100.00
19600;BME280;9947;57.722;12.012;2023-04-01T00:43:50;100215.53;;;-2.45;100.00
19600;BME280;9947;57.722;12.012;2023-04-01T00:46:17;100216.59;;;-2.51;100.00
19600;BME280;9947;57.722;12.012;2023-04-01T00:48:48;100224.44;;;-2.48;100.00
19600;BME280;9947;57.722;12.012;2023-04-01T00:51:20;100223.72;;;-2.53;100.00
19600;BME280;9947;57.722;12.012;2023-04-01T00:53:50;100222.19;;;-2.60;100.00
19600;BME280;9947;57.722;12.012;2023-04-01T00:56:21;100227.50;;;-2.62;100.00
19600;BME280;9947;57.722;12.012;2023-04-01T00:58:52;100227.59;;;-2.65;100.00
19600;BME280;9947;57.722;12.012;2023-04-01T01:01:23;100233.03;;;-2.69;100.00
19600;BME280;9947;57.722;12.012;2023-04-01T01:03:51;100246.41;;;-2.74;100.00
19600;BME280;9947;57.722;12.012;2023-04-01T01:06:26;100256.25;;;-2.79;100.00
19600;BME280;9947;57.722;12.012;2023-04-01T01:12:11;100257.31;;;-2.85;100.00
19600;BME280;9947;57.722;12.012;2023-04-01T01:14:55;100260.94;;;-2.89;100.00
19600;BME280;9947;57.722;12.012;2023-04-01T01:17:39;100265.53;;;-2.95;100.00
19600;BME280;9947;57.722;12.012;2023-04-01T01:20:36;100274.53;;;-3.01;100.00
19600;BME280;9947;57.722;12.012;2023-04-01T01:23:20;100275.34;;;-2.99;100.00
19600;BME280;9947;57.722;12.012;2023-04-01T01:26:11;100265.00;;;-3.06;100.00
19600;BME280;9947;57.722;12.012;2023-04-01T01:28:54;100275.78;;;-3.14;100.00
19600;BME280;9947;57.722;12.012;2023-04-01T01:31:30;100282.84;;;-3.15;100.00
19600;BME280;9947;57.722;12.012;2023-04-01T01:34:15;100288.25;;;-3.19;100.00
19600;BME280;9947;57.722;12.012;2023-04-01T01:36:50;100290.25;;;-3.27;100.00
19600;BME280;9947;57.722;12.012;2023-04-01T01:39:20;100287.66;;;-3.29;100.00
19600;BME280;9947;57.722;12.012;2023-04-01T01:41:57;100293.97;;;-3.34;100.00
19600;BME280;9947;57.722;12.012;2023-04-01T01:44:28;100306.28;;;-3.33;100.00
19600;BME280;9947;57.722;12.012;2023-04-01T01:46:56;100292.28;;;-3.37;100.00
19600;BME280;9947;57.722;12.012;2023-04-01T01:49:24;100287.06;;;-3.40;100.00
19600;BME280;9947;57.722;12.012;2023-04-01T01:51:54;100299.50;;;-3.44;100.00
19600;BME280;9947;57.722;12.012;2023-04-01T01:54:21;100296.13;;;-3.49;100.00
19600;BME280;9947;57.722;12.012;2023-04-01T01:56:50;100287.50;;;-3.55;100.00
19600;BME280;9947;57.722;12.012;2023-04-01T01:59:20;100306.88;;;-3.56;100.00
19600;BME280;9947;57.722;12.012;2023-04-01T02:01:55;100299.88;;;-3.57;100.00
19600;BME280;9947;57.722;12.012;2023-04-01T02:04:25;100294.72;;;-3.62;100.00
19600;BME280;9947;57.722;12.012;2023-04-01T02:06:58;100312.47;;;-3.68;100.00
19600;BME280;9947;57.722;12.012;2023-04-01T02:09:27;100305.41;;;-3.68;100.00
19600;BME280;9947;57.722;12.012;2023-04-01T02:11:57;100306.31;;;-3.69;100.00
19600;BME280;9947;57.722;12.012;2023-04-01T02:14:38;100320.44;;;-3.70;100.00
19600;BME280;9947;57.722;12.012;2023-04-01T02:17:09;100309.94;;;-3.73;100.00
19600;BME280;9947;57.722;12.012;2023-04-01T02:19:39;100316.13;;;-3.74;100.00
19600;BME280;9947;57.722;12.012;2023-04-01T02:22:11;100308.34;;;-3.79;100.00
19600;BME280;9947;57.722;12.012;2023-04-01T02:24:40;100306.66;;;-3.81;100.00
19600;BME280;9947;57.722;12.012;2023-04-01T02:27:09;100309.41;;;-3.86;100.00
19600;BME280;9947;57.722;12.012;2023-04-01T02:29:36;100305.03;;;-3.87;100.00
19600;BME280;9947;57.722;12.012;2023-04-01T02:32:04;100313.91;;;-3.91;100.00
19600;BME280;9947;57.722;12.012;2023-04-01T02:34:32;100311.41;;;-3.97;100.00
19600;BME280;9947;57.722;12.012;2023-04-01T02:37:00;100333.34;;;-3.93;100.00
19600;BME280;9947;57.722;12.012;2023-04-01T02:39:28;100321.94;;;-3.95;100.00
19600;BME280;9947;57.722;12.012;2023-04-01T02:41:55;100320.25;;;-3.98;100.00
19600;BME280;9947;57.722;12.012;2023-04-01T02:44:22;100333.50;;;-3.99;100.00
19600;BME280;9947;57.722;12.012;2023-04-01T02:46:49;100329.91;;;-3.97;100.00
19600;BME280;9947;57.722;12.012;2023-04-01T02:49:16;100325.56;;;-3.99;100.00
19600;BME280;9947;57.722;12.012;2023-04-01T02:51:43;100329.22;;;-4.05;100.00
19600;BME280;9947;57.722;12.012;2023-04-01T02:54:10;100344.28;;;-4.09;100.00
19600;BME280;9947;57.722;12.012;2023-04-01T02:56:38;100350.47;;;-4.10;100.00
19600;BME280;9947;57.722;12.012;2023-04-01T02:59:05;100346.09;;;-4.11;100.00
19600;BME280;9947;57.722;12.012;2023-04-01T03:01:32;100356.69;;;-4.12;100.00
19600;BME280;9947;57.722;12.012;2023-04-01T03:03:59;100346.19;;;-4.15;100.00
19600;BME280;9947;57.722;12.012;2023-04-01T03:06:26;100354.91;;;-4.12;100.00
19600;BME280;9947;57.722;12.012;2023-04-01T03:08:53;100362.00;;;-4.14;100.00
19600;BME280;9947;57.722;12.012;2023-04-01T03:11:20;100363.72;;;-4.13;100.00
19600;BME280;9947;57.722;12.012;2023-04-01T03:13:54;100362.91;;;-4.15;100.00
19600;BME280;9947;57.722;12.012;2023-04-01T03:16:21;100364.75;;;-4.20;100.00
19600;BME280;9947;57.722;12.012;2023-04-01T03:18:48;100362.25;;;-4.26;100.00
19600;BME280;9947;57.722;12.012;2023-04-01T03:21:20;100374.59;;;-4.26;100.00
19600;BME280;9947;57.722;12.012;2023-04-01T03:23:47;100371.13;;;-4.28;100.00
19600;BME280;9947;57.722;12.012;2023-04-01T03:26:14;100379.97;;;-4.31;100.00
19600;BME280;9947;57.722;12.012;2023-04-01T03:28:41;100373.94;;;-4.36;100.00
19600;BME280;9947;57.722;12.012;2023-04-01T03:31:10;100380.88;;;-4.32;100.00
19600;BME280;9947;57.722;12.012;2023-04-01T03:33:37;100384.44;;;-4.35;100.00
19600;BME280;9947;57.722;12.012;2023-04-01T03:36:04;100390.66;;;-4.37;100.00
19600;BME280;9947;57.722;12.012;2023-04-01T03:38:32;100394.88;;;-4.28;100.00
19600;BME280;9947;57.722;12.012;2023-04-01T03:40:59;100381.81;;;-4.35;100.00
19600;BME280;9947;57.722;12.012;2023-04-01T03:43:26;100393.13;;;-4.29;100.00
19600;BME280;9947;57.722;12.012;2023-04-01T03:45:53;100386.19;;;-4.33;100.00
19600;BME280;9947;57.722;12.012;2023-04-01T03:48:24;100408.19;;;-4.35;100.00
19600;BME280;9947;57.722;12.012;2023-04-01T03:50:51;100386.13;;;-4.30;100.00
19600;BME280;9947;57.722;12.012;2023-04-01T03:53:18;100389.59;;;-4.28;100.00
19600;BME280;9947;57.722;12.012;2023-04-01T03:55:45;100400.97;;;-4.26;100.00
19600;BME280;9947;57.722;12.012;2023-04-01T03:58:12;100403.69;;;-4.29;100.00
19600;BME280;9947;57.722;12.012;2023-04-01T04:00:40;100403.75;;;-4.32;100.00
19600;BME280;9947;57.722;12.012;2023-04-01T04:03:14;100399.41;;;-4.35;100.00
19600;BME280;9947;57.722;12.012;2023-04-01T04:05:47;100411.84;;;-4.40;100.00
19600;BME280;9947;57.722;12.012;2023-04-01T04:08:14;100412.81;;;-4.46;100.00
19600;BME280;9947;57.722;12.012;2023-04-01T04:10:41;100424.22;;;-4.45;100.00
19600;BME280;9947;57.722;12.012;2023-04-01T04:13:08;100413.66;;;-4.44;100.00
19600;BME280;9947;57.722;12.012;2023-04-01T04:15:35;100425.19;;;-4.49;100.00
19600;BME280;9947;57.722;12.012;2023-04-01T04:18:02;100424.31;;;-4.48;100.00
19600;BME280;9947;57.722;12.012;2023-04-01T04:20:29;100438.41;;;-4.51;100.00
19600;BME280;9947;57.722;12.012;2023-04-01T04:22:57;100427.94;;;-4.54;100.00
19600;BME280;9947;57.722;12.012;2023-04-01T04:25:24;100442.75;;;-4.48;100.00
19600;BME280;9947;57.722;12.012;2023-04-01T04:27:51;100445.38;;;-4.47;100.00
19600;BME280;9947;57.722;12.012;2023-04-01T04:30:18;100441.97;;;-4.52;100.00
19600;BME280;9947;57.722;12.012;2023-04-01T04:32:45;100453.41;;;-4.53;100.00
19600;BME280;9947;57.722;12.012;2023-04-01T04:35:12;100447.25;;;-4.52;100.00
19600;BME280;9947;57.722;12.012;2023-04-01T04:37:39;100450.84;;;-4.56;100.00
19600;BME280;9947;57.722;12.012;2023-04-01T04:40:08;100445.66;;;-4.60;100.00
19600;BME280;9947;57.722;12.012;2023-04-01T04:42:36;100459.78;;;-4.63;100.00
19600;BME280;9947;57.722;12.012;2023-04-01T04:45:04;100456.28;;;-4.63;100.00
19600;BME280;9947;57.722;12.012;2023-04-01T04:47:31;100466.03;;;-4.67;100.00
19600;BME280;9947;57.722;12.012;2023-04-01T04:49:58;100460.72;;;-4.66;100.00
19600;BME280;9947;57.722;12.012;2023-04-01T04:52:25;100466.72;;;-4.59;100.00
19600;BME280;9947;57.722;12.012;2023-04-01T04:54:51;100472.06;;;-4.62;100.00
19600;BME280;9947;57.722;12.012;2023-04-01T04:57:20;100470.09;;;-4.52;100.00
19600;BME280;9947;57.722;12.012;2023-04-01T04:59:54;100475.97;;;-4.37;100.00
19600;BME280;9947;57.722;12.012;2023-04-01T05:02:21;100467.69;;;-4.20;100.00
19600;BME280;9947;57.722;12.012;2023-04-01T05:04:48;100470.84;;;-4.03;100.00
19600;BME280;9947;57.722;12.012;2023-04-01T05:07:15;100474.84;;;-3.83;100.00
19600;BME280;9947;57.722;12.012;2023-04-01T05:09:42;100487.28;;;-3.50;100.00
19600;BME280;9947;57.722;12.012;2023-04-01T05:12:11;100482.44;;;-3.31;100.00
19600;BME280;9947;57.722;12.012;2023-04-01T05:14:39;100486.16;;;-3.04;100.00
19600;BME280;9947;57.722;12.012;2023-04-01T05:17:08;100499.66;;;-3.16;100.00
19600;BME280;9947;57.722;12.012;2023-04-01T05:19:35;100490.34;;;-3.31;100.00
19600;BME280;9947;57.722;12.012;2023-04-01T05:22:03;100494.19;;;-3.44;100.00
19600;BME280;9947;57.722;12.012;2023-04-01T05:24:30;100510.47;;;-3.25;100.00
19600;BME280;9947;57.722;12.012;2023-04-01T05:27:04;100522.19;;;-3.35;100.00
19600;BME280;9947;57.722;12.012;2023-04-01T05:29:31;100522.41;;;-3.46;100.00
19600;BME280;9947;57.722;12.012;2023-04-01T05:31:59;100518.34;;;-3.22;100.00
19600;BME280;9947;57.722;12.012;2023-04-01T05:34:27;100517.22;;;-3.14;100.00
19600;BME280;9947;57.722;12.012;2023-04-01T05:36:53;100521.84;;;-3.22;100.00
19600;BME280;9947;57.722;12.012;2023-04-01T05:39:20;100529.66;;;-3.17;100.00
19600;BME280;9947;57.722;12.012;2023-04-01T05:41:47;100536.72;;;-3.18;100.00
19600;BME280;9947;57.722;12.012;2023-04-01T05:44:14;100542.72;;;-3.09;100.00
19600;BME280;9947;57.722;12.012;2023-04-01T05:46:41;100540.59;;;-2.95;100.00
19600;BME280;9947;57.722;12.012;2023-04-01T05:49:10;100538.47;;;-3.17;100.00
19600;BME280;9947;57.722;12.012;2023-04-01T05:51:37;100534.88;;;-3.14;100.00
19600;BME280;9947;57.722;12.012;2023-04-01T05:54:04;100542.06;;;-3.19;100.00
19600;BME280;9947;57.722;12.012;2023-04-01T05:56:31;100545.69;;;-3.23;100.00
19600;BME280;9947;57.722;12.012;2023-04-01T05:58:58;100562.41;;;-3.23;100.00
19600;BME280;9947;57.722;12.012;2023-04-01T06:01:24;100551.59;;;-3.12;100.00
19600;BME280;9947;57.722;12.012;2023-04-01T06:03:51;100563.19;;;-3.19;100.00
19600;BME280;9947;57.722;12.012;2023-04-01T06:06:24;100564.91;;;-3.17;100.00
19600;BME280;9947;57.722;12.012;2023-04-01T06:08:52;100567.31;;;-3.06;100.00
19600;BME280;9947;57.722;12.012;2023-04-01T06:11:26;100583.03;;;-3.00;100.00
19600;BME280;9947;57.722;12.012;2023-04-01T06:14:04;100562.47;;;-2.89;100.00
19600;BME280;9947;57.722;12.012;2023-04-01T06:16:51;100566.31;;;-2.66;100.00
19600;BME280;9947;57.722;12.012;2023-04-01T06:19:27;100571.88;;;-2.43;100.00
19600;BME280;9947;57.722;12.012;2023-04-01T06:22:22;100581.09;;;-2.24;100.00
19600;BME280;9947;57.722;12.012;2023-04-01T06:25:03;100579.88;;;-2.12;100.00
19600;BME280;9947;57.722;12.012;2023-04-01T06:27:49;100587.59;;;-2.03;100.00
19600;BME280;9947;57.722;12.012;2023-04-01T06:30:33;100595.59;;;-2.04;100.00
19600;BME280;9947;57.722;12.012;2023-04-01T06:33:21;100586.69;;;-2.02;100.00
19600;BME280;9947;57.722;12.012;2023-04-01T06:36:09;100597.97;;;-2.28;100.00
19600;BME280;9947;57.722;12.012;2023-04-01T06:39:09;100595.63;;;-2.40;100.00
19600;BME280;9947;57.722;12.012;2023-04-01T06:44:51;100595.38;;;-2.29;100.00
19600;BME280;9947;57.722;12.012;2023-04-01T06:47:30;100597.81;;;-2.22;100.00
19600;BME280;9947;57.722;12.012;2023-04-01T06:50:19;100605.59;;;-2.15;100.00
19600;BME280;9947;57.722;12.012;2023-04-01T06:52:54;100609.75;;;-2.05;100.00
19600;BME280;9947;57.722;12.012;2023-04-01T06:55:27;100604.22;;;-1.98;100.00
19600;BME280;9947;57.722;12.012;2023-04-01T06:57:59;100604.13;;;-1.95;100.00
19600;BME280;9947;57.722;12.012;2023-04-01T07:00:32;100609.97;;;-1.82;100.00
19600;BME280;9947;57.722;12.012;2023-04-01T07:03:06;100620.31;;;-1.73;98.33
19600;BME280;9947;57.722;12.012;2023-04-01T07:05:39;100614.56;;;-1.58;96.38
19600;BME280;9947;57.722;12.012;2023-04-01T07:08:17;100627.28;;;-1.39;94.49
19600;BME280;9947;57.722;12.012;2023-04-01T07:10:50;100625.25;;;-1.31;89.21
19600;BME280;9947;57.722;12.012;2023-04-01T07:13:21;100629.41;;;-1.21;89.42
19600;BME280;9947;57.722;12.012;2023-04-01T07:15:57;100628.47;;;-1.20;86.77
19600;BME280;9947;57.722;12.012;2023-04-01T07:18:32;100627.09;;;-1.04;87.79
19600;BME280;9947;57.722;12.012;2023-04-01T07:20:59;100632.00;;;-0.91;84.96
19600;BME280;9947;57.722;12.012;2023-04-01T07:23:31;100629.94;;;-0.82;82.15
19600;BME280;9947;57.722;12.012;2023-04-01T07:26:08;100632.94;;;-0.93;77.43
19600;BME280;9947;57.722;12.012;2023-04-01T07:28:38;100634.63;;;-0.90;76.66
19600;BME280;9947;57.722;12.012;2023-04-01T07:31:13;100647.03;;;-0.90;77.68
19600;BME280;9947;57.722;12.012;2023-04-01T07:33:56;100654.94;;;-0.89;76.56
19600;BME280;9947;57.722;12.012;2023-04-01T07:36:28;100649.81;;;-0.67;75.38
19600;BME280;9947;57.722;12.012;2023-04-01T07:39:04;100666.25;;;-0.56;72.52
19600;BME280;9947;57.722;12.012;2023-04-01T07:41:45;100665.28;;;-0.52;69.55
19600;BME280;9947;57.722;12.012;2023-04-01T07:44:20;100670.97;;;-0.38;68.23
19600;BME280;9947;57.722;12.012;2023-04-01T07:47:02;100674.47;;;-0.36;68.76
19600;BME280;9947;57.722;12.012;2023-04-01T07:49:40;100679.66;;;-0.33;66.62
19600;BME280;9947;57.722;12.012;2023-04-01T07:52:17;100676.50;;;-0.44;64.90
19600;BME280;9947;57.722;12.012;2023-04-01T07:54:57;100678.91;;;-0.36;64.66
19600;BME280;9947;57.722;12.012;2023-04-01T07:57:33;100678.19;;;-0.41;65.43
19600;BME280;9947;57.722;12.012;2023-04-01T08:00:09;100689.03;;;-0.21;64.21
19600;BME280;9947;57.722;12.012;2023-04-01T08:02:51;100684.22;;;-0.36;62.66
19600;BME280;9947;57.722;12.012;2023-04-01T08:05:25;100683.72;;;-0.21;64.11
19600;BME280;9947;57.722;12.012;2023-04-01T08:08:01;100686.94;;;-0.11;63.26
19600;BME280;9947;57.722;12.012;2023-04-01T08:10:35;100676.75;;;0.02;63.84
19600;BME280;9947;57.722;12.012;2023-04-01T08:13:15;100676.13;;;-0.07;60.66
19600;BME280;9947;57.722;12.012;2023-04-01T08:15:54;100677.19;;;0.14;62.56
19600;BME280;9947;57.722;12.012;2023-04-01T08:18:33;100688.63;;;0.16;63.02
19600;BME280;9947;57.722;12.012;2023-04-01T08:21:07;100681.94;;;0.31;62.80
19600;BME280;9947;57.722;12.012;2023-04-01T08:23:40;100690.03;;;0.28;60.65
19600;BME280;9947;57.722;12.012;2023-04-01T08:26:13;100694.56;;;0.24;61.09
19600;BME280;9947;57.722;12.012;2023-04-01T08:28:50;100684.19;;;0.42;62.08
19600;BME280;9947;57.722;12.012;2023-04-01T08:31:23;100688.41;;;0.47;62.86
19600;BME280;9947;57.722;12.012;2023-04-01T08:33:53;100699.97;;;0.46;62.70
19600;BME280;9947;57.722;12.012;2023-04-01T08:36:24;100704.44;;;0.46;60.64
19600;BME280;9947;57.722;12.012;2023-04-01T08:38:55;100694.94;;;0.39;61.89
19600;BME280;9947;57.722;12.012;2023-04-01T08:41:42;100707.09;;;0.46;60.76
19600;BME280;9947;57.722;12.012;2023-04-01T08:44:49;100700.53;;;0.56;61.76
19600;BME280;9947;57.722;12.012;2023-04-01T08:48:10;100717.69;;;0.47;58.96
19600;BME280;9947;57.722;12.012;2023-04-01T08:51:08;100706.78;;;0.55;59.38
19600;BME280;9947;57.722;12.012;2023-04-01T08:53:54;100710.19;;;0.58;59.34
19600;BME280;9947;57.722;12.012;2023-04-01T08:56:34;100704.25;;;0.75;59.90
19600;BME280;9947;57.722;12.012;2023-04-01T08:59:13;100712.22;;;0.75;59.58
19600;BME280;9947;57.722;12.012;2023-04-01T09:01:58;100712.13;;;0.78;57.65
19600;BME280;9947;57.722;12.012;2023-04-01T09:04:40;100704.00;;;0.58;56.65
19600;BME280;9947;57.722;12.012;2023-04-01T09:07:22;100714.63;;;0.83;57.02
19600;BME280;9947;57.722;12.012;2023-04-01T09:13:29;100726.16;;;0.58;54.65
19600;BME280;9947;57.722;12.012;2023-04-01T09:19:24;100719.84;;;0.61;53.70
19600;BME280;9947;57.722;12.012;2023-04-01T09:22:22;100711.78;;;0.87;55.01
19600;BME280;9947;57.722;12.012;2023-04-01T09:25:13;100729.31;;;0.93;55.14
19600;BME280;9947;57.722;12.012;2023-04-01T09:27:45;100737.00;;;1.01;54.83
19600;BME280;9947;57.722;12.012;2023-04-01T09:30:33;100717.34;;;1.05;55.10
19600;BME280;9947;57.722;12.012;2023-04-01T09:36:12;100716.00;;;1.40;56.40
19600;BME280;9947;57.722;12.012;2023-04-01T09:38:55;100719.06;;;1.29;53.93
19600;BME280;9947;57.722;12.012;2023-04-01T09:41:29;100721.50;;;1.35;54.31
19600;BME280;9947;57.722;12.012;2023-04-01T09:44:00;100746.97;;;1.19;53.20
19600;BME280;9947;57.722;12.012;2023-04-01T09:46:37;100728.22;;;1.22;53.27
19600;BME280;9947;57.722;12.012;2023-04-01T09:49:36;100744.78;;;1.30;53.96
19600;BME280;9947;57.722;12.012;2023-04-01T09:52:20;100720.56;;;1.36;54.30
19600;BME280;9947;57.722;12.012;2023-04-01T09:55:03;100725.97;;;1.35;54.23
19600;BME280;9947;57.722;12.012;2023-04-01T09:57:52;100730.38;;;1.58;54.73
19600;BME280;9947;57.722;12.012;2023-04-01T10:00:35;100742.59;;;1.63;54.32
19600;BME280;9947;57.722;12.012;2023-04-01T10:03:40;100742.47;;;1.66;54.74
19600;BME280;9947;57.722;12.012;2023-04-01T10:06:56;100727.16;;;1.93;56.33
19600;BME280;9947;57.722;12.012;2023-04-01T10:10:07;100741.81;;;1.83;54.68
19600;BME280;9947;57.722;12.012;2023-04-01T10:13:11;100743.69;;;1.79;54.28
19600;BME280;9947;57.722;12.012;2023-04-01T10:16:21;100737.81;;;1.93;54.46
19600;BME280;9947;57.722;12.012;2023-04-01T10:19:03;100735.56;;;2.04;54.57
19600;BME280;9947;57.722;12.012;2023-04-01T10:25:16;100750.28;;;1.93;53.91
19600;BME280;9947;57.722;12.012;2023-04-01T10:28:10;100749.47;;;2.12;54.86
19600;BME280;9947;57.722;12.012;2023-04-01T10:31:00;100732.78;;;2.28;55.07
19600;BME280;9947;57.722;12.012;2023-04-01T10:36:51;100729.22;;;2.49;55.87
19600;BME280;9947;57.722;12.012;2023-04-01T10:45:49;100777.94;;;2.32;54.24
19600;BME280;9947;57.722;12.012;2023-04-01T10:51:52;100763.09;;;2.47;55.51
19600;BME280;9947;57.722;12.012;2023-04-01T10:54:45;100755.44;;;2.39;55.18
19600;BME280;9947;57.722;12.012;2023-04-01T11:06:37;100768.59;;;2.64;56.21
19600;BME280;9947;57.722;12.012;2023-04-01T11:12:46;100762.19;;;2.68;56.74
19600;BME280;9947;57.722;12.012;2023-04-01T11:15:45;100782.81;;;2.65;55.66
19600;BME280;9947;57.722;12.012;2023-04-01T11:21:46;100769.59;;;2.62;57.00
19600;BME280;9947;57.722;12.012;2023-04-01T11:24:48;100779.13;;;2.67;57.33
19600;BME280;9947;57.722;12.012;2023-04-01T11:27:32;100778.28;;;2.86;58.67
19600;BME280;9947;57.722;12.012;2023-04-01T11:30:20;100770.97;;;2.70;58.30
19600;BME280;9947;57.722;12.012;2023-04-01T11:32:53;100769.16;;;2.91;58.34
19600;BME280;9947;57.722;12.012;2023-04-01T11:36:00;100774.03;;;3.02;59.16
19600;BME280;9947;57.722;12.012;2023-04-01T11:38:57;100780.81;;;3.09;59.36
19600;BME280;9947;57.722;12.012;2023-04-01T11:41:40;100776.22;;;3.13;58.48
19600;BME280;9947;57.722;12.012;2023-04-01T11:44:20;100784.41;;;3.08;58.32
19600;BME280;9947;57.722;12.012;2023-04-01T11:47:03;100780.81;;;3.09;58.50
19600;BME280;9947;57.722;12.012;2023-04-01T11:49:44;100783.34;;;3.12;58.33
19600;BME280;9947;57.722;12.012;2023-04-01T11:52:34;100788.34;;;3.20;57.46
19600;BME280;9947;57.722;12.012;2023-04-01T11:55:19;100794.56;;;3.20;57.41
19600;BME280;9947;57.722;12.012;2023-04-01T11:58:18;100785.75;;;3.37;59.17
19600;BME280;9947;57.722;12.012;2023-04-01T12:01:01;100791.19;;;3.35;59.02
19600;BME280;9947;57.722;12.012;2023-04-01T12:06:40;100790.84;;;3.43;58.53
19600;BME280;9947;57.722;12.012;2023-04-01T12:09:13;100796.25;;;3.60;59.21
19600;BME280;9947;57.722;12.012;2023-04-01T12:11:54;100791.78;;;3.61;57.14
19600;BME280;9947;57.722;12.012;2023-04-01T12:14:34;100798.78;;;3.63;56.06
19600;BME280;9947;57.722;12.012;2023-04-01T12:17:08;100804.63;;;3.53;57.11
19600;BME280;9947;57.722;12.012;2023-04-01T12:19:43;100800.53;;;3.46;57.93
19600;BME280;9947;57.722;12.012;2023-04-01T12:22:26;100806.31;;;3.74;59.50
19600;BME280;9947;57.722;12.012;2023-04-01T12:24:59;100811.06;;;3.86;57.62
19600;BME280;9947;57.722;12.012;2023-04-01T12:27:51;100800.13;;;4.10;52.42
19600;BME280;9947;57.722;12.012;2023-04-01T12:30:34;100817.88;;;3.93;46.61
19600;BME280;9947;57.722;12.012;2023-04-01T12:33:42;100810.78;;;3.92;44.85
19600;BME280;9947;57.722;12.012;2023-04-01T12:42:15;100838.41;;;3.93;49.24
19600;BME280;9947;57.722;12.012;2023-04-01T12:45:04;100848.00;;;3.97;47.44
19600;BME280;9947;57.722;12.012;2023-04-01T12:47:59;100844.38;;;4.17;48.63
19600;BME280;9947;57.722;12.012;2023-04-01T12:50:48;100852.13;;;4.04;47.14
19600;BME280;9947;57.722;12.012;2023-04-01T12:53:33;100846.84;;;4.02;47.33
19600;BME280;9947;57.722;12.012;2023-04-01T12:56:10;100851.31;;;4.02;45.88
19600;BME280;9947;57.722;12.012;2023-04-01T12:58:59;100853.22;;;4.00;45.48
19600;BME280;9947;57.722;12.012;2023-04-01T13:07:42;100860.00;;;4.07;46.40
19600;BME280;9947;57.722;12.012;2023-04-01T13:10:20;100879.16;;;4.17;45.37
19600;BME280;9947;57.722;12.012;2023-04-01T13:13:01;100861.81;;;4.07;46.13
19600;BME280;9947;57.722;12.012;2023-04-01T13:15:35;100864.25;;;4.11;46.54
19600;BME280;9947;57.722;12.012;2023-04-01T13:18:16;100875.25;;;4.24;46.40
19600;BME280;9947;57.722;12.012;2023-04-01T13:20:51;100878.16;;;4.00;45.84
19600;BME280;9947;57.722;12.012;2023-04-01T13:23:33;100878.44;;;3.94;44.20
19600;BME280;9947;57.722;12.012;2023-04-01T13:26:08;100874.19;;;3.90;45.34
19600;BME280;9947;57.722;12.012;2023-04-01T13:28:40;100897.25;;;3.93;45.94
19600;BME280;9947;57.722;12.012;2023-04-01T13:31:35;100886.75;;;4.07;45.70
19600;BME280;9947;57.722;12.012;2023-04-01T13:34:15;100898.31;;;4.08;45.75
19600;BME280;9947;57.722;12.012;2023-04-01T13:36:54;100890.72;;;3.98;45.56
19600;BME280;9947;57.722;12.012;2023-04-01T13:39:39;100884.50;;;3.98;45.92
19600;BME280;9947;57.722;12.012;2023-04-01T13:42:22;100888.94;;;4.18;46.12
19600;BME280;9947;57.722;12.012;2023-04-01T13:44:54;100895.50;;;3.92;45.12
19600;BME280;9947;57.722;12.012;2023-04-01T13:47:47;100893.97;;;4.05;44.84
19600;BME280;9947;57.722;12.012;2023-04-01T13:50:31;100897.28;;;4.10;45.50
19600;BME280;9947;57.722;12.012;2023-04-01T13:53:29;100899.75;;;4.15;45.93
19600;BME280;9947;57.722;12.012;2023-04-01T13:56:16;100905.97;;;4.15;46.29
19600;BME280;9947;57.722;12.012;2023-04-01T13:59:02;100918.22;;;4.21;46.30
19600;BME280;9947;57.722;12.012;2023-04-01T14:01:42;100906.97;;;4.13;46.29
19600;BME280;9947;57.722;12.012;2023-04-01T14:04:34;100921.09;;;3.97;46.65
19600;BME280;9947;57.722;12.012;2023-04-01T14:07:35;100912.13;;;4.17;47.04
19600;BME280;9947;57.722;12.012;2023-04-01T14:10:15;100916.56;;;4.18;46.57
19600;BME280;9947;57.722;12.012;2023-04-01T14:12:49;100907.44;;;4.22;45.80
19600;BME280;9947;57.722;12.012;2023-04-01T14:15:29;100910.53;;;4.32;45.76
19600;BME280;9947;57.722;12.012;2023-04-01T14:18:19;100925.44;;;4.19;45.74
19600;BME280;9947;57.722;12.012;2023-04-01T14:20:52;100919.84;;;4.05;45.98
19600;BME280;9947;57.722;12.012;2023-04-01T14:23:49;100939.09;;;4.13;46.81
19600;BME280;9947;57.722;12.012;2023-04-01T14:26:30;100935.53;;;4.12;46.27
19600;BME280;9947;57.722;12.012;2023-04-01T14:29:10;100926.72;;;4.10;46.27
19600;BME280;9947;57.722;12.012;2023-04-01T14:31:50;100934.34;;;4.19;47.07
19600;BME280;9947;57.722;12.012;2023-04-01T14:34:29;100930.91;;;4.16;47.44
19600;BME280;9947;57.722;12.012;2023-04-01T14:37:30;100937.59;;;4.26;47.51
19600;BME280;9947;57.722;12.012;2023-04-01T14:40:21;100952.13;;;4.20;46.94